Airfield :







YOU CAN JOIN US ON...

 
LOGIN :

Register | Disclaimer

   EN    FR    IT 

 









Legend :    VFR   Marginal VFR   IFR   Intensive IFR   Very Intensive IFR
Visi :
Ceiling :
>= 8 km
>= 3000ft
5 to 8 km
1000 to 3000 ft
1500m to 5 km
500 to 1000 ft
800 to 1500m
200 to 500 ft
< 800m
< 200 ft
Symbols :   Thunderstorms  Fog  Heavy snow  Heavy precipitations  Wind > 20 kt







- Airport Elevation : 172 ft
- IATA code : YYY


CYYY - Mont Joli

CURRENT METAR :
  • 201400Z 33004KT 30SM -RA OVC032 05/04 A3009 RMK SC8 SLP194

EXPIRED METARs :
  • 201329Z VRB02KT 30SM -RA SCT035 OVC072 05/03 A3008 RMK SC4AC4 SLP190
  • 201200Z VRB02KT 30SM -RA OVC028 04/03 A3005 RMK SC8 SLP178
  • 201146Z 00000KT 30SM -RA OVC046 04/03 A3004 RMK SC8 SLP175

TAF TAF CYYY
Valid from the 20 at 14:00 until the 21 at 02:00 UTC


201338Z 2014/2102 VRB03KT P6SM -RA SCT030 OVC070
TEMPO 2014/2016 P6SM NSW OVC070
FM201600 06008KT P6SM OVC040
FM202200 06010KT P6SM OVC030
TEMPO 2022/2101 5SM -RA BR OVC020
FM210100 08012KT 6SM -RA OVC020
TEMPO 2101/2102 3SM -RA BR FEW005 OVC015 RMK NXT FCST BY 202000Z
CZUL FIR / North America



MET'MAP, your aeronautical weather chart ! - Copyright ORBIFLY December 2007 - Disclaimer

ORBIFLY MET'MAP TEAM :

Programming & Development : Alexandra Zaïnal
Concept & Development : Baudouin d'Aumeries
Co-Development & Prog : Marc-Olivier Méhu
Technical & hardware support : Manuel Goepfert

Contact : metmap@orbifly.com




SOURCES & CREDITS :

   NOAA